createdAt,value
2023-04-04T00:00:46.948Z,101744.56
2023-04-04T00:03:14.937Z,101746.81
2023-04-04T00:05:42.796Z,101736.94
2023-04-04T00:08:10.711Z,101735.81
2023-04-04T00:10:38.980Z,101734.13
2023-04-04T00:13:07.765Z,101727.94
2023-04-04T00:15:36.596Z,101737.09
2023-04-04T00:18:04.497Z,101724.38
2023-04-04T00:20:32.356Z,101727.94
2023-04-04T00:23:00.701Z,101724.22
2023-04-04T00:25:28.644Z,101724.50
2023-04-04T00:28:00.910Z,101720.22
2023-04-04T00:30:29.043Z,101723.06
2023-04-04T00:32:57.462Z,101722.19
2023-04-04T00:35:25.468Z,101718.78
2023-04-04T00:37:53.429Z,101717.88
2023-04-04T00:40:21.572Z,101719.03
2023-04-04T00:42:49.392Z,101713.75
2023-04-04T00:45:17.369Z,101709.31
2023-04-04T00:47:45.279Z,101706.59
2023-04-04T00:50:13.235Z,101712.25
2023-04-04T00:52:41.131Z,101714.13
2023-04-04T00:55:08.929Z,101708.69
2023-04-04T00:57:36.873Z,101707.84
2023-04-04T01:00:05.365Z,101698.88
2023-04-04T01:02:33.555Z,101709.44
2023-04-04T01:05:02.258Z,101707.13
2023-04-04T01:07:30.698Z,101706.00
2023-04-04T01:09:59.454Z,101706.38
2023-04-04T01:12:27.414Z,101699.53
2023-04-04T01:14:55.245Z,101700.25
2023-04-04T01:17:23.170Z,101700.97
2023-04-04T01:19:51.143Z,101704.66
2023-04-04T01:22:18.878Z,101704.66
2023-04-04T01:24:46.699Z,101710.84
2023-04-04T01:27:14.630Z,101703.44
2023-04-04T01:29:42.393Z,101702.97
2023-04-04T01:32:10.162Z,101703.09
2023-04-04T01:34:38.077Z,101701.22
2023-04-04T01:37:05.885Z,101707.78
2023-04-04T01:39:33.784Z,101694.38
2023-04-04T01:42:01.619Z,101688.06
2023-04-04T01:44:29.619Z,101694.38
2023-04-04T01:46:57.366Z,101693.25
2023-04-04T01:49:25.162Z,101697.19
2023-04-04T01:51:53.104Z,101700.03
2023-04-04T01:54:21.145Z,101698.31
2023-04-04T01:56:49.274Z,101689.91
2023-04-04T01:59:17.288Z,101689.81
2023-04-04T02:01:45.306Z,101684.50
2023-04-04T02:04:14.603Z,101690.19
2023-04-04T02:06:42.416Z,101691.19
2023-04-04T02:09:10.205Z,101687.59
2023-04-04T02:11:39.105Z,101687.75
2023-04-04T02:14:06.903Z,101683.19
2023-04-04T02:16:34.789Z,101682.53
2023-04-04T02:19:02.600Z,101682.25
2023-04-04T02:21:30.471Z,101683.75
2023-04-04T02:23:58.332Z,101678.34
2023-04-04T02:26:26.271Z,101677.50
2023-04-04T02:28:54.087Z,101678.34
2023-04-04T02:31:22.077Z,101666.91
2023-04-04T02:33:50.039Z,101674.19
2023-04-04T02:36:17.917Z,101667.78
2023-04-04T02:38:45.861Z,101666.91
2023-04-04T02:41:13.661Z,101664.31
2023-04-04T02:43:41.644Z,101659.16
2023-04-04T02:46:20.491Z,101659.16
2023-04-04T02:48:49.567Z,101657.19
2023-04-04T02:51:17.588Z,101664.59
2023-04-04T02:53:45.389Z,101658.66
2023-04-04T02:56:13.237Z,101653.81
2023-04-04T02:58:41.672Z,101638.97
2023-04-04T03:01:10.530Z,101643.38
2023-04-04T03:03:38.473Z,101646.09
2023-04-04T03:06:06.348Z,101633.81
2023-04-04T03:08:35.124Z,101638.50
2023-04-04T03:11:03.412Z,101637.75
2023-04-04T03:13:31.243Z,101634.31
2023-04-04T03:15:59.034Z,101643.72
2023-04-04T03:18:26.813Z,101631.75
2023-04-04T03:20:54.722Z,101634.31
2023-04-04T03:23:22.527Z,101631.88
2023-04-04T03:25:50.340Z,101631.13
2023-04-04T03:28:18.199Z,101629.69
2023-04-04T03:30:46.037Z,101636.56
2023-04-04T03:33:13.873Z,101630.91
2023-04-04T03:35:41.924Z,101625.47
2023-04-04T03:38:09.997Z,101631.88
2023-04-04T03:40:37.817Z,101633.16
2023-04-04T03:43:05.643Z,101625.72
2023-04-04T03:45:33.422Z,101634.00
2023-04-04T03:48:01.644Z,101631.41
2023-04-04T03:50:29.480Z,101630.09
2023-04-04T03:52:58.425Z,101628.22
2023-04-04T03:55:26.365Z,101633.25
2023-04-04T03:57:54.238Z,101630.09
2023-04-04T04:00:22.109Z,101619.13
2023-04-04T04:02:49.986Z,101621.69
2023-04-04T04:05:22.309Z,101624.09
2023-04-04T04:07:50.645Z,101620.19
2023-04-04T04:10:18.480Z,101628.19
2023-04-04T04:12:47.561Z,101622.13
2023-04-04T04:15:15.390Z,101616.56
2023-04-04T04:17:43.341Z,101625.81
2023-04-04T04:20:11.481Z,101616.47
2023-04-04T04:22:39.318Z,101616.47
2023-04-04T04:25:07.182Z,101614.63
2023-04-04T04:27:34.995Z,101619.53
2023-04-04T04:30:02.793Z,101626.25
2023-04-04T04:32:30.697Z,101612.81
2023-04-04T04:34:58.603Z,101620.84
2023-04-04T04:37:27.188Z,101618.00
2023-04-04T04:39:55.547Z,101624.00
2023-04-04T04:42:23.399Z,101628.56
2023-04-04T04:44:51.177Z,101624.41
2023-04-04T04:47:19.359Z,101620.84
2023-04-04T04:49:49.609Z,101631.22
2023-04-04T04:52:17.514Z,101630.22
2023-04-04T04:54:45.372Z,101630.81
2023-04-04T04:57:13.235Z,101633.16
2023-04-04T04:59:41.421Z,101634.38
2023-04-04T05:02:09.302Z,101627.66
2023-04-04T05:04:37.124Z,101626.38
2023-04-04T05:07:04.943Z,101631.69
2023-04-04T05:09:33.112Z,101628.13
2023-04-04T05:12:01.052Z,101636.25
2023-04-04T05:14:28.896Z,101638.81
2023-04-04T05:16:56.977Z,101646.34
2023-04-04T05:19:24.905Z,101642.78
2023-04-04T05:21:54.044Z,101652.63
2023-04-04T05:24:22.969Z,101647.94
2023-04-04T05:26:51.121Z,101644.56
2023-04-04T05:29:18.967Z,101652.13
2023-04-04T05:31:47.352Z,101652.63
2023-04-04T05:34:15.255Z,101656.06
2023-04-04T05:36:43.092Z,101660.75
2023-04-04T05:39:10.956Z,101650.75
2023-04-04T05:41:38.745Z,101655.78
2023-04-04T05:44:06.581Z,101655.94
2023-04-04T05:46:34.453Z,101663.19
2023-04-04T05:49:03.179Z,101664.19
2023-04-04T05:51:31.032Z,101662.22
2023-04-04T05:53:58.982Z,101662.81
2023-04-04T05:56:26.732Z,101660.25
2023-04-04T05:58:54.657Z,101667.03
2023-04-04T06:01:22.479Z,101671.59
2023-04-04T06:03:50.265Z,101672.44
2023-04-04T06:06:18.287Z,101672.69
2023-04-04T06:08:53.473Z,101670.84
2023-04-04T06:11:23.098Z,101675.03
2023-04-04T06:13:50.908Z,101673.44
2023-04-04T06:16:18.763Z,101669.88
2023-04-04T06:18:46.604Z,101669.59
2023-04-04T06:21:14.453Z,101672.44
2023-04-04T06:23:43.778Z,101673.06
2023-04-04T06:26:12.629Z,101679.44
2023-04-04T06:28:40.481Z,101681.31
2023-04-04T06:31:08.864Z,101681.03
2023-04-04T06:33:36.853Z,101676.22
2023-04-04T06:36:04.668Z,101680.38
2023-04-04T06:38:33.373Z,101677.66
2023-04-04T06:41:01.356Z,101675.97
2023-04-04T06:43:30.888Z,101675.13
2023-04-04T06:45:58.984Z,101683.25
2023-04-04T06:48:26.837Z,101671.28
2023-04-04T06:50:54.905Z,101674.84
2023-04-04T06:53:23.816Z,101672.72
2023-04-04T06:55:52.067Z,101666.78
2023-04-04T06:58:19.998Z,101671.22
2023-04-04T07:00:47.981Z,101670.66
2023-04-04T07:03:15.962Z,101673.38
2023-04-04T07:05:43.775Z,101675.97
2023-04-04T07:08:11.760Z,101674.72
2023-04-04T07:10:40.663Z,101666.59
2023-04-04T07:13:09.759Z,101666.84
2023-04-04T07:15:37.647Z,101668.97
2023-04-04T07:18:05.436Z,101663.81
2023-04-04T07:20:33.284Z,101669.97
2023-04-04T07:23:01.242Z,101665.25
2023-04-04T07:25:29.097Z,101663.06
2023-04-04T07:28:09.531Z,101677.63
2023-04-04T07:30:38.096Z,101661.22
2023-04-04T07:33:06.280Z,101665.91
2023-04-04T07:35:34.173Z,101667.03
2023-04-04T07:38:03.190Z,101662.22
2023-04-04T07:40:31.890Z,101666.91
2023-04-04T07:42:59.853Z,101666.91
2023-04-04T07:45:27.651Z,101664.31
2023-04-04T07:47:55.950Z,101662.88
2023-04-04T07:50:23.896Z,101663.75
2023-04-04T07:52:52.860Z,101665.22
2023-04-04T07:55:20.715Z,101658.91
2023-04-04T07:57:48.533Z,101660.63
2023-04-04T08:00:17.664Z,101663.47
2023-04-04T08:02:46.434Z,101659.38
2023-04-04T08:05:14.286Z,101664.09
2023-04-04T08:07:42.731Z,101657.66
2023-04-04T08:10:10.653Z,101654.22
2023-04-04T08:12:38.467Z,101657.94
2023-04-04T08:15:06.254Z,101661.50
2023-04-04T08:17:34.304Z,101650.66
2023-04-04T08:20:02.086Z,101660.06
2023-04-04T08:22:29.866Z,101660.91
2023-04-04T08:24:57.679Z,101661.50
2023-04-04T08:27:25.468Z,101649.53
2023-04-04T08:29:53.253Z,101648.28
2023-04-04T08:32:21.050Z,101650.25
2023-04-04T08:34:48.889Z,101649.53
2023-04-04T08:37:17.122Z,101652.34
2023-04-04T08:39:45.451Z,101640.66
2023-04-04T08:42:15.083Z,101647.81
2023-04-04T08:44:42.911Z,101647.34
2023-04-04T08:47:11.283Z,101640.81
2023-04-04T08:49:39.280Z,101646.94
2023-04-04T08:52:07.611Z,101649.81
2023-04-04T08:54:35.418Z,101642.88
2023-04-04T08:57:04.170Z,101650.44
2023-04-04T08:59:32.129Z,101636.63
2023-04-04T09:02:01.328Z,101653.91
2023-04-04T09:04:29.248Z,101637.91
2023-04-04T09:06:57.412Z,101635.88
2023-04-04T09:09:25.236Z,101643.50
2023-04-04T09:11:53.136Z,101642.78
2023-04-04T09:14:20.964Z,101644.38
2023-04-04T09:16:48.839Z,101646.06
2023-04-04T09:19:17.216Z,101644.94
2023-04-04T09:21:45.026Z,101651.44
2023-04-04T09:24:12.926Z,101652.38
2023-04-04T09:26:40.758Z,101644.75
2023-04-04T09:29:08.559Z,101649.06
2023-04-04T09:31:36.377Z,101653.63
2023-04-04T09:34:04.138Z,101653.34
2023-04-04T09:36:32.273Z,101654.94
2023-04-04T09:39:00.102Z,101648.66
2023-04-04T09:41:27.926Z,101649.78
2023-04-04T09:43:56.180Z,101659.38
2023-04-04T09:46:25.331Z,101663.94
2023-04-04T09:48:53.342Z,101666.53
2023-04-04T09:51:22.313Z,101657.66
2023-04-04T09:53:50.134Z,101662.22
2023-04-04T09:56:17.938Z,101664.19
2023-04-04T09:58:55.965Z,101653.06
2023-04-04T10:01:30.814Z,101653.22
2023-04-04T10:03:58.748Z,101658.50
2023-04-04T10:06:27.100Z,101651.94
2023-04-04T10:08:54.913Z,101646.41
2023-04-04T10:11:23.535Z,101644.44
2023-04-04T10:13:51.955Z,101650.81
2023-04-04T10:16:20.056Z,101639.00
2023-04-04T10:18:47.952Z,101643.31
2023-04-04T10:21:16.336Z,101649.97
2023-04-04T10:23:44.195Z,101652.28
2023-04-04T10:26:13.017Z,101646.59
2023-04-04T10:28:42.493Z,101648.28
2023-04-04T10:31:11.035Z,101648.91
2023-04-04T10:33:38.864Z,101641.03
2023-04-04T10:36:06.783Z,101639.47
2023-04-04T10:38:34.691Z,101636.88
2023-04-04T10:41:03.891Z,101628.75
2023-04-04T10:43:31.661Z,101630.31
2023-04-04T10:45:59.580Z,101632.31
2023-04-04T10:48:28.129Z,101631.44
2023-04-04T10:50:56.093Z,101631.16
2023-04-04T10:53:24.042Z,101624.78
2023-04-04T10:55:51.967Z,101620.94
2023-04-04T10:58:19.788Z,101610.09
2023-04-04T11:00:47.810Z,101607.94
2023-04-04T11:03:15.955Z,101606.38
2023-04-04T11:05:47.442Z,101602.66
2023-04-04T11:08:17.057Z,101608.78
2023-04-04T11:10:44.883Z,101602.41
2023-04-04T11:13:14.274Z,101598.09
2023-04-04T11:15:42.844Z,101597.66
2023-04-04T11:18:28.904Z,101600.38
2023-04-04T11:20:59.829Z,101590.66
2023-04-04T11:23:27.864Z,101593.34
2023-04-04T11:25:55.727Z,101587.66
2023-04-04T11:28:23.556Z,101584.22
2023-04-04T11:30:51.318Z,101576.94
2023-04-04T11:33:19.200Z,101584.22
2023-04-04T11:35:47.195Z,101578.50
2023-04-04T11:38:15.010Z,101569.25
2023-04-04T11:40:42.930Z,101574.38
2023-04-04T11:43:10.802Z,101574.38
2023-04-04T11:45:39.322Z,101572.97
2023-04-04T11:48:07.809Z,101576.53
2023-04-04T11:50:35.857Z,101562.97
2023-04-04T11:53:03.649Z,101563.97
2023-04-04T11:55:31.504Z,101568.13
2023-04-04T11:58:02.620Z,101568.97
2023-04-04T12:00:30.553Z,101561.56
2023-04-04T12:02:58.468Z,101564.16
2023-04-04T12:05:26.542Z,101547.88
2023-04-04T12:07:54.557Z,101554.72
2023-04-04T12:10:22.394Z,101548.72
2023-04-04T12:12:50.436Z,101561.44
2023-04-04T12:15:18.769Z,101550.31
2023-04-04T12:17:48.619Z,101550.59
2023-04-04T12:20:16.519Z,101540.72
2023-04-04T12:22:45.679Z,101541.72
2023-04-04T12:25:13.466Z,101537.31
2023-04-04T12:27:41.254Z,101537.31
2023-04-04T12:30:15.700Z,101537.88
2023-04-04T12:32:43.714Z,101539.84
2023-04-04T12:35:11.479Z,101543.56
2023-04-04T12:37:39.264Z,101534.59
2023-04-04T12:40:07.546Z,101523.00
2023-04-04T12:42:35.387Z,101523.28
2023-04-04T12:45:04.216Z,101509.75
2023-04-04T12:47:32.442Z,101502.75
2023-04-04T12:50:00.736Z,101504.34
2023-04-04T12:52:29.589Z,101500.63
2023-04-04T12:55:07.578Z,101501.50
2023-04-04T12:57:36.143Z,101499.78
2023-04-04T13:00:04.437Z,101501.91
2023-04-04T13:02:32.418Z,101503.34
2023-04-04T13:05:00.380Z,101489.03
2023-04-04T13:07:28.577Z,101496.34
2023-04-04T13:09:56.566Z,101487.34
2023-04-04T13:12:25.148Z,101485.31
2023-04-04T13:14:52.944Z,101489.63
2023-04-04T13:17:20.759Z,101480.22
2023-04-04T13:19:48.539Z,101478.78
2023-04-04T13:22:16.355Z,101471.13
2023-04-04T13:24:44.111Z,101472.22
2023-04-04T13:27:11.928Z,101472.22
2023-04-04T13:29:39.740Z,101474.94
2023-04-04T13:32:07.590Z,101472.78
2023-04-04T13:34:36.236Z,101473.06
2023-04-04T13:37:04.034Z,101469.16
2023-04-04T13:39:31.927Z,101470.41
2023-04-04T13:41:59.808Z,101466.00
2023-04-04T13:44:27.604Z,101466.38
2023-04-04T13:46:55.400Z,101468.38
2023-04-04T13:49:23.216Z,101463.75
2023-04-04T13:51:51.051Z,101463.81
2023-04-04T13:54:18.808Z,101458.69
2023-04-04T13:56:47.387Z,101448.94
2023-04-04T13:59:15.322Z,101450.31
2023-04-04T14:01:43.186Z,101442.84
2023-04-04T14:04:22.826Z,101448.69
2023-04-04T14:06:51.878Z,101441.38
2023-04-04T14:09:19.674Z,101441.38
2023-04-04T14:11:47.668Z,101442.31
2023-04-04T14:14:15.478Z,101437.81
2023-04-04T14:16:43.262Z,101444.47
2023-04-04T14:19:11.246Z,101443.16
2023-04-04T14:21:39.102Z,101430.84
2023-04-04T14:24:07.532Z,101440.03
2023-04-04T14:26:37.639Z,101440.88
2023-04-04T14:29:05.681Z,101430.91
2023-04-04T14:31:34.927Z,101422.81
2023-04-04T14:34:02.998Z,101431.25
2023-04-04T14:36:31.894Z,101426.38
2023-04-04T14:38:59.836Z,101425.28
2023-04-04T14:41:27.645Z,101420.31
2023-04-04T14:43:55.413Z,101423.09
2023-04-04T14:46:23.588Z,101419.94
2023-04-04T14:48:51.754Z,101414.50
2023-04-04T14:51:20.135Z,101417.22
2023-04-04T14:53:47.967Z,101407.69
2023-04-04T14:56:15.787Z,101409.16
2023-04-04T14:58:43.575Z,101409.84
2023-04-04T15:01:12.402Z,101411.41
2023-04-04T15:03:40.280Z,101402.28
2023-04-04T15:06:08.062Z,101401.03
2023-04-04T15:08:35.840Z,101398.94
2023-04-04T15:11:03.734Z,101389.50
2023-04-04T15:13:31.990Z,101385.94
2023-04-04T15:16:00.335Z,101392.41
2023-04-04T15:18:28.420Z,101386.56
2023-04-04T15:20:56.276Z,101385.53
2023-04-04T15:23:24.099Z,101377.56
2023-04-04T15:25:51.919Z,101384.03
2023-04-04T15:28:19.673Z,101384.09
2023-04-04T15:30:47.456Z,101391.31
2023-04-04T15:33:15.518Z,101382.56
2023-04-04T15:35:43.758Z,101382.44
2023-04-04T15:38:11.611Z,101380.66
2023-04-04T15:40:39.712Z,101379.66
2023-04-04T15:43:07.832Z,101381.44
2023-04-04T15:45:35.721Z,101376.81
2023-04-04T15:48:03.965Z,101383.41
2023-04-04T15:50:31.844Z,101374.50
2023-04-04T15:52:59.622Z,101377.09
2023-04-04T15:55:27.622Z,101382.00
2023-04-04T15:57:55.969Z,101379.81
2023-04-04T16:00:26.161Z,101378.50
2023-04-04T16:02:54.075Z,101372.44
2023-04-04T16:05:21.932Z,101377.34
2023-04-04T16:07:49.859Z,101376.41
2023-04-04T16:10:17.671Z,101369.44
2023-04-04T16:12:45.510Z,101366.72
2023-04-04T16:15:13.482Z,101373.44
2023-04-04T16:17:41.389Z,101376.09
2023-04-04T16:20:09.746Z,101371.28
2023-04-04T16:22:37.626Z,101363.41
2023-04-04T16:25:09.246Z,101362.31
2023-04-04T16:27:37.365Z,101360.44
2023-04-04T16:30:05.148Z,101358.03
2023-04-04T16:32:34.543Z,101354.44
2023-04-04T16:35:02.470Z,101351.03
2023-04-04T16:37:30.474Z,101356.47
2023-04-04T16:40:01.403Z,101355.78
2023-04-04T16:42:29.273Z,101352.22
2023-04-04T16:44:57.104Z,101355.50
2023-04-04T16:47:28.370Z,101351.22
2023-04-04T16:49:56.766Z,101346.59
2023-04-04T16:52:24.736Z,101344.41
2023-04-04T16:54:52.740Z,101349.44
2023-04-04T16:57:20.597Z,101345.31
2023-04-04T16:59:48.550Z,101340.88
2023-04-04T17:02:18.724Z,101346.47
2023-04-04T17:04:46.729Z,101346.16
2023-04-04T17:07:14.630Z,101347.53
2023-04-04T17:09:47.178Z,101343.44
2023-04-04T17:12:16.413Z,101349.69
2023-04-04T17:14:44.377Z,101342.56
2023-04-04T17:17:17.498Z,101339.56
2023-04-04T17:19:48.203Z,101344.97
2023-04-04T17:22:16.234Z,101340.97
2023-04-04T17:24:44.406Z,101339.16
2023-04-04T17:27:12.380Z,101342.56
2023-04-04T17:29:40.231Z,101346.31
2023-04-04T17:32:08.151Z,101337.78
2023-04-04T17:34:36.273Z,101342.00
2023-04-04T17:37:04.098Z,101348.44
2023-04-04T17:39:32.330Z,101344.19
2023-04-04T17:42:00.182Z,101344.03
2023-04-04T17:44:30.409Z,101338.91
2023-04-04T17:46:58.926Z,101341.97
2023-04-04T17:49:27.222Z,101340.69
2023-04-04T17:51:55.373Z,101339.47
2023-04-04T17:54:29.253Z,101338.56
2023-04-04T17:56:57.582Z,101338.50
2023-04-04T17:59:26.060Z,101330.81
2023-04-04T18:01:54.412Z,101343.47
2023-04-04T18:04:25.986Z,101347.81
2023-04-04T18:06:54.722Z,101348.59
2023-04-04T18:09:27.659Z,101347.34
2023-04-04T18:11:55.470Z,101350.66
2023-04-04T18:14:23.625Z,101353.00
2023-04-04T18:16:51.385Z,101348.91
2023-04-04T18:19:19.181Z,101352.63
2023-04-04T18:21:47.691Z,101351.94
2023-04-04T18:24:15.523Z,101357.00
2023-04-04T18:26:44.475Z,101358.16
2023-04-04T18:29:14.833Z,101353.69
2023-04-04T18:31:42.691Z,101352.00
2023-04-04T18:34:10.861Z,101358.75
2023-04-04T18:36:39.820Z,101355.63
2023-04-04T18:39:10.017Z,101356.56
2023-04-04T18:41:37.906Z,101351.03
2023-04-04T18:44:05.908Z,101354.53
2023-04-04T18:46:33.942Z,101350.28
2023-04-04T18:49:02.053Z,101359.19
2023-04-04T18:51:29.896Z,101357.09
2023-04-04T18:53:58.027Z,101359.19
2023-04-04T18:56:26.197Z,101358.66
2023-04-04T18:58:54.116Z,101358.66
2023-04-04T19:01:21.975Z,101358.97
2023-04-04T19:03:51.591Z,101354.06
2023-04-04T19:06:19.518Z,101360.66
2023-04-04T19:08:47.321Z,101358.97
2023-04-04T19:11:15.870Z,101364.97
2023-04-04T19:13:43.832Z,101354.09
2023-04-04T19:16:16.753Z,101358.84
2023-04-04T19:18:44.809Z,101361.00
2023-04-04T19:21:12.713Z,101354.72
2023-04-04T19:23:40.904Z,101361.16
2023-04-04T19:26:08.818Z,101352.72
2023-04-04T19:28:36.864Z,101356.47
2023-04-04T19:31:06.502Z,101365.34
2023-04-04T19:33:34.695Z,101361.72
2023-04-04T19:36:02.646Z,101357.31
2023-04-04T19:38:30.490Z,101357.31
2023-04-04T19:40:58.452Z,101353.44
2023-04-04T19:43:26.369Z,101354.47
2023-04-04T19:45:54.312Z,101350.72
2023-04-04T19:48:22.301Z,101354.75
2023-04-04T19:50:50.071Z,101353.88
2023-04-04T19:53:17.984Z,101355.75
2023-04-04T19:55:46.092Z,101348.75
2023-04-04T19:58:13.858Z,101357.22
2023-04-04T20:00:42.075Z,101350.03
2023-04-04T20:03:10.715Z,101357.22
2023-04-04T20:05:39.013Z,101357.22
2023-04-04T20:08:07.141Z,101346.78
2023-04-04T20:10:34.925Z,101349.63
2023-04-04T20:13:02.800Z,101357.63
2023-04-04T20:15:31.030Z,101352.06
2023-04-04T20:17:58.903Z,101351.50
2023-04-04T20:20:26.714Z,101352.34
2023-04-04T20:22:54.699Z,101347.09
2023-04-04T20:25:22.631Z,101347.09
2023-04-04T20:27:50.715Z,101356.50
2023-04-04T20:30:19.800Z,101355.53
2023-04-04T20:32:47.651Z,101347.38
2023-04-04T20:35:15.865Z,101342.81
2023-04-04T20:37:43.982Z,101346.66
2023-04-04T20:40:12.980Z,101350.81
2023-04-04T20:42:42.924Z,101348.13
2023-04-04T20:45:11.200Z,101348.25
2023-04-04T20:47:41.425Z,101348.13
2023-04-04T20:50:09.296Z,101340.94
2023-04-04T20:52:37.204Z,101348.41
2023-04-04T20:55:05.282Z,101347.41
2023-04-04T20:57:33.061Z,101352.97
2023-04-04T21:00:04.733Z,101361.09
2023-04-04T21:02:32.669Z,101362.41
2023-04-04T21:05:00.846Z,101356.13
2023-04-04T21:07:28.644Z,101355.25
2023-04-04T21:09:56.501Z,101348.84
2023-04-04T21:12:24.258Z,101350.00
2023-04-04T21:14:52.238Z,101354.41
2023-04-04T21:17:20.042Z,101355.41
2023-04-04T21:19:50.861Z,101344.56
2023-04-04T21:22:18.611Z,101337.69
2023-04-04T21:24:46.397Z,101338.00
2023-04-04T21:27:16.244Z,101335.59
2023-04-04T21:29:44.023Z,101336.31
2023-04-04T21:32:13.606Z,101336.31
2023-04-04T21:34:41.418Z,101336.56
2023-04-04T21:37:11.723Z,101336.84
2023-04-04T21:39:39.556Z,101331.72
2023-04-04T21:42:08.983Z,101325.59
2023-04-04T21:44:40.008Z,101328.28
2023-04-04T21:47:07.887Z,101326.47
2023-04-04T21:49:35.684Z,101322.59
2023-04-04T21:52:03.608Z,101320.88
2023-04-04T21:54:31.598Z,101323.16
2023-04-04T21:56:59.441Z,101320.31
2023-04-04T21:59:27.297Z,101318.59
2023-04-04T22:01:55.184Z,101317.91
2023-04-04T22:04:23.160Z,101320.75
2023-04-04T22:06:51.250Z,101314.31
2023-04-04T22:09:19.306Z,101316.34
2023-04-04T22:11:47.105Z,101313.63
2023-04-04T22:14:18.134Z,101309.19
2023-04-04T22:16:46.365Z,101311.13
2023-04-04T22:19:14.340Z,101308.72
2023-04-04T22:21:48.273Z,101303.16
2023-04-04T22:24:18.244Z,101306.16
2023-04-04T22:26:46.531Z,101300.88
2023-04-04T22:29:14.355Z,101305.44
2023-04-04T22:31:42.204Z,101309.03
2023-04-04T22:34:11.421Z,101305.28
2023-04-04T22:36:41.196Z,101305.44
2023-04-04T22:39:09.016Z,101304.31
2023-04-04T22:41:36.921Z,101296.31
2023-04-04T22:44:04.831Z,101293.75
2023-04-04T22:46:32.662Z,101299.19
2023-04-04T22:49:06.686Z,101302.03
2023-04-04T22:51:43.108Z,101300.31
2023-04-04T22:54:13.159Z,101299.44
2023-04-04T22:56:41.005Z,101304.88
2023-04-04T22:59:08.936Z,101302.31
2023-04-04T23:01:36.802Z,101291.59
2023-04-04T23:04:04.752Z,101284.19
2023-04-04T23:06:33.112Z,101289.19
2023-04-04T23:09:01.916Z,101280.63
2023-04-04T23:11:30.586Z,101279.19
2023-04-04T23:13:58.546Z,101285.75
2023-04-04T23:16:26.610Z,101286.91
2023-04-04T23:18:54.533Z,101294.91
2023-04-04T23:21:22.625Z,101292.06
2023-04-04T23:23:50.904Z,101283.91
2023-04-04T23:26:18.861Z,101287.47
2023-04-04T23:28:46.640Z,101288.47
2023-04-04T23:31:16.307Z,101282.06
2023-04-04T23:33:44.199Z,101281.03
2023-04-04T23:36:12.084Z,101280.06
2023-04-04T23:38:39.944Z,101284.47
2023-04-04T23:41:07.733Z,101283.63
2023-04-04T23:43:36.138Z,101275.78
2023-04-04T23:46:04.010Z,101271.94
2023-04-04T23:48:31.980Z,101272.19
2023-04-04T23:51:01.789Z,101272.34
2023-04-04T23:53:29.961Z,101266.06
2023-04-04T23:55:57.779Z,101272.19
2023-04-04T23:58:25.714Z,101263.38
